Time;durP1;ratioP1;P1;durP2;ratioP2;P2;SDS_P1;SDS_P2;PMS_P1;PMS_P2;Temp;Humidity;BMP_temperature;BMP_pressure;BME280_temperature;BME280_humidity;BME280_pressure;Samples;Min_cycle;Max_cycle;Signal;HPM_P1;HPM_P2
2022/07/19 00:01:40;;;;;;;7.72;4.68;;;;;;;;;;5028554;28;20045;-75
2022/07/19 00:04:06;;;;;;;13.40;4.82;;;;;;;;;;5049695;28;20045;-75
2022/07/19 00:06:33;;;;;;;7.55;5.40;;;;;;;;;;5050342;28;20053;-75
2022/07/19 00:08:59;;;;;;;9.00;4.93;;;;;;;;;;5030783;28;20060;-75
2022/07/19 00:11:25;;;;;;;8.93;5.13;;;;;;;;;;5047381;28;20041;-75
2022/07/19 00:13:51;;;;;;;9.38;5.53;;;;;;;;;;5044889;28;20065;-74
2022/07/19 00:16:17;;;;;;;7.78;4.90;;;;;;;;;;5046567;28;20384;-75
2022/07/19 00:18:44;;;;;;;10.57;5.55;;;;;;;;;;5044252;28;20044;-75
2022/07/19 00:21:10;;;;;;;10.25;5.57;;;;;;;;;;5028146;28;20053;-75
2022/07/19 00:23:36;;;;;;;11.50;5.22;;;;;;;;;;5028356;28;21385;-75
2022/07/19 00:26:02;;;;;;;13.75;5.45;;;;;;;;;;5045233;28;20427;-75
2022/07/19 00:28:28;;;;;;;11.00;5.75;;;;;;;;;;5044756;28;20036;-75
2022/07/19 00:30:54;;;;;;;10.32;6.00;;;;;;;;;;5050569;28;20044;-75
2022/07/19 00:33:20;;;;;;;9.10;5.80;;;;;;;;;;5051151;28;20076;-75
2022/07/19 00:35:46;;;;;;;10.27;5.60;;;;;;;;;;5045096;28;20064;-75
2022/07/19 00:45:53;;;;;;;9.20;6.18;;;;;;;;;;5109001;22;20502;-86
2022/07/19 00:48:19;;;;;;;8.60;5.15;;;;;;;;;;5046652;28;20052;-87
2022/07/19 00:50:45;;;;;;;8.77;5.35;;;;;;;;;;5062630;28;20459;-87
2022/07/19 00:53:12;;;;;;;11.38;5.80;;;;;;;;;;5069918;28;20106;-86
2022/07/19 00:55:40;;;;;;;10.13;5.90;;;;;;;;;;5063254;28;20041;-86
2022/07/19 00:58:06;;;;;;;14.40;5.90;;;;;;;;;;5081597;28;20123;-85
2022/07/19 01:00:34;;;;;;;10.05;6.38;;;;;;;;;;5063565;28;20044;-87
2022/07/19 01:03:00;;;;;;;9.70;5.68;;;;;;;;;;5064903;28;20040;-86
2022/07/19 01:05:26;;;;;;;9.65;5.95;;;;;;;;;;5037837;28;20048;-88
2022/07/19 01:07:52;;;;;;;10.10;6.10;;;;;;;;;;5054830;28;20052;-87
2022/07/19 01:10:18;;;;;;;11.15;5.97;;;;;;;;;;5065269;28;20148;-87
2022/07/19 01:12:44;;;;;;;10.60;6.07;;;;;;;;;;5056597;28;20098;-87
2022/07/19 01:15:15;;;;;;;11.27;6.47;;;;;;;;;;5074293;28;20044;-87
2022/07/19 01:17:41;;;;;;;13.73;6.47;;;;;;;;;;5056369;28;20101;-87
2022/07/19 01:20:07;;;;;;;8.90;6.20;;;;;;;;;;5036429;28;20041;-87
2022/07/19 01:22:33;;;;;;;11.30;5.93;;;;;;;;;;5057011;28;20047;-87
2022/07/19 01:24:59;;;;;;;13.30;7.15;;;;;;;;;;5074438;28;20119;-87
2022/07/19 01:27:25;;;;;;;11.57;7.00;;;;;;;;;;5039979;28;20135;-87
2022/07/19 01:29:52;;;;;;;11.38;7.40;;;;;;;;;;5073548;28;20046;-87
2022/07/19 01:32:17;;;;;;;13.07;6.63;;;;;;;;;;5071910;28;20044;-87
2022/07/19 01:34:43;;;;;;;12.85;7.28;;;;;;;;;;5072501;28;20379;-87
2022/07/19 01:37:10;;;;;;;15.07;7.60;;;;;;;;;;5074398;28;20045;-87
2022/07/19 01:39:36;;;;;;;11.18;7.20;;;;;;;;;;5071626;28;20053;-86
2022/07/19 01:42:02;;;;;;;13.38;7.88;;;;;;;;;;5053021;28;20037;-86
2022/07/19 01:44:28;;;;;;;12.07;7.30;;;;;;;;;;5035489;28;20090;-86
2022/07/19 01:46:54;;;;;;;15.38;8.00;;;;;;;;;;5053104;28;20581;-87
2022/07/19 01:49:20;;;;;;;12.48;8.20;;;;;;;;;;5054148;28;20084;-87
2022/07/19 01:51:46;;;;;;;13.52;8.27;;;;;;;;;;5054306;28;20053;-86
2022/07/19 01:54:12;;;;;;;11.75;7.93;;;;;;;;;;5041073;28;20050;-87
2022/07/19 01:56:41;;;;;;;12.57;7.95;;;;;;;;;;5043141;28;20131;-86
2022/07/19 01:59:07;;;;;;;12.60;7.90;;;;;;;;;;5056057;28;20041;-86
2022/07/19 02:01:33;;;;;;;12.70;8.35;;;;;;;;;;5037817;28;20044;-87
2022/07/19 02:03:59;;;;;;;10.63;8.00;;;;;;;;;;5055611;28;20041;-87
2022/07/19 02:06:25;;;;;;;11.55;7.93;;;;;;;;;;5019699;28;20486;-87
2022/07/19 02:08:51;;;;;;;11.45;7.72;;;;;;;;;;5054088;28;20116;-87
2022/07/19 02:11:35;;;;;;;12.48;8.02;;;;;;;;;;5053658;28;20099;-87
2022/07/19 02:14:02;;;;;;;14.05;7.82;;;;;;;;;;5052363;28;20029;-87
2022/07/19 02:16:28;;;;;;;16.42;7.80;;;;;;;;;;5035396;28;20041;-87
2022/07/19 02:18:54;;;;;;;12.40;7.45;;;;;;;;;;5053952;28;20421;-87
2022/07/19 02:21:20;;;;;;;11.02;7.70;;;;;;;;;;5019453;28;20036;-86
2022/07/19 02:23:46;;;;;;;14.30;7.60;;;;;;;;;;5036039;28;20128;-86
2022/07/19 02:26:12;;;;;;;11.65;7.38;;;;;;;;;;5034776;28;20041;-87
2022/07/19 02:28:38;;;;;;;11.00;7.38;;;;;;;;;;5034678;28;20390;-87
2022/07/19 02:31:04;;;;;;;18.00;7.80;;;;;;;;;;5052432;28;20086;-87
2022/07/19 02:33:30;;;;;;;11.38;7.40;;;;;;;;;;5053934;28;20482;-87
2022/07/19 02:35:56;;;;;;;13.20;7.72;;;;;;;;;;5052482;28;20551;-87
2022/07/19 02:38:22;;;;;;;11.55;7.80;;;;;;;;;;5036111;28;20045;-86
2022/07/19 02:40:49;;;;;;;11.13;7.93;;;;;;;;;;5053892;28;20072;-87
2022/07/19 02:43:15;;;;;;;12.93;8.18;;;;;;;;;;5054462;28;20044;-86
2022/07/19 02:45:41;;;;;;;12.90;8.27;;;;;;;;;;5053434;28;20059;-87
2022/07/19 02:48:09;;;;;;;13.80;8.60;;;;;;;;;;5053981;28;20047;-86
2022/07/19 02:50:35;;;;;;;12.68;8.38;;;;;;;;;;5035436;28;20137;-86
2022/07/19 02:53:01;;;;;;;12.18;7.68;;;;;;;;;;5053296;28;20074;-86
2022/07/19 02:55:28;;;;;;;12.05;8.45;;;;;;;;;;5054051;28;20051;-87
2022/07/19 02:57:54;;;;;;;11.25;8.18;;;;;;;;;;5054075;28;20088;-86
2022/07/19 03:00:20;;;;;;;14.02;7.40;;;;;;;;;;5059846;28;20390;-87
2022/07/19 03:02:46;;;;;;;12.23;8.10;;;;;;;;;;5064305;28;20151;-86
2022/07/19 03:05:12;;;;;;;10.40;8.07;;;;;;;;;;5057389;28;20064;-86
2022/07/19 03:07:38;;;;;;;10.05;7.80;;;;;;;;;;5053257;28;20414;-86
2022/07/19 03:10:04;;;;;;;14.70;7.68;;;;;;;;;;5035493;28;20056;-86
2022/07/19 03:12:30;;;;;;;12.95;8.48;;;;;;;;;;5035893;28;20041;-86
2022/07/19 03:14:56;;;;;;;10.35;7.75;;;;;;;;;;5053686;28;20067;-86
2022/07/19 03:17:22;;;;;;;12.02;7.90;;;;;;;;;;5053665;28;20072;-87
2022/07/19 03:19:48;;;;;;;13.73;8.32;;;;;;;;;;5053758;28;20041;-87
2022/07/19 03:22:14;;;;;;;13.60;8.85;;;;;;;;;;5053327;28;20112;-86
2022/07/19 03:24:40;;;;;;;13.48;8.02;;;;;;;;;;5031751;28;20049;-87
2022/07/19 03:27:06;;;;;;;14.00;8.18;;;;;;;;;;5035280;28;20053;-86
2022/07/19 03:29:32;;;;;;;11.57;8.50;;;;;;;;;;5018624;28;20041;-86
2022/07/19 03:31:58;;;;;;;11.68;8.55;;;;;;;;;;5045571;28;20067;-86
2022/07/19 03:34:25;;;;;;;15.02;8.52;;;;;;;;;;5054550;28;20091;-86
2022/07/19 03:36:52;;;;;;;12.82;8.40;;;;;;;;;;5037413;28;20052;-87
2022/07/19 03:39:18;;;;;;;15.60;8.95;;;;;;;;;;5056344;28;20117;-87
2022/07/19 03:41:44;;;;;;;13.75;8.80;;;;;;;;;;5056232;28;20391;-87
2022/07/19 03:44:10;;;;;;;12.90;9.18;;;;;;;;;;5056521;28;20083;-86
2022/07/19 03:46:36;;;;;;;14.57;8.82;;;;;;;;;;5056049;28;20057;-86
2022/07/19 03:49:02;;;;;;;12.05;8.55;;;;;;;;;;5056643;28;20049;-86
2022/07/19 03:51:28;;;;;;;14.55;8.88;;;;;;;;;;5055122;28;20052;-86
2022/07/19 03:53:54;;;;;;;11.30;9.00;;;;;;;;;;5056530;28;20037;-87
2022/07/19 03:56:20;;;;;;;12.50;9.05;;;;;;;;;;5055352;28;20041;-87
2022/07/19 03:58:47;;;;;;;14.20;9.52;;;;;;;;;;5056666;28;20048;-87
2022/07/19 04:01:14;;;;;;;12.73;9.48;;;;;;;;;;5056922;28;20049;-87
2022/07/19 04:03:40;;;;;;;14.55;9.45;;;;;;;;;;5038382;28;20053;-87
2022/07/19 04:06:06;;;;;;;13.43;9.02;;;;;;;;;;5038098;28;20486;-87
2022/07/19 04:08:33;;;;;;;14.68;9.60;;;;;;;;;;5039260;28;20045;-87
2022/07/19 04:10:59;;;;;;;14.80;10.18;;;;;;;;;;5055299;28;20047;-87
2022/07/19 04:13:25;;;;;;;17.98;10.70;;;;;;;;;;5055911;28;20037;-87
2022/07/19 04:15:51;;;;;;;14.00;11.18;;;;;;;;;;5056018;28;20049;-87
2022/07/19 04:18:17;;;;;;;15.00;10.73;;;;;;;;;;5021941;28;20044;-88
2022/07/19 04:20:43;;;;;;;13.68;10.55;;;;;;;;;;5020959;28;20045;-87
2022/07/19 04:23:09;;;;;;;17.50;10.38;;;;;;;;;;5055543;28;20521;-87
2022/07/19 04:25:35;;;;;;;14.00;10.55;;;;;;;;;;5036560;28;20037;-87
2022/07/19 04:28:01;;;;;;;16.00;10.15;;;;;;;;;;5056097;28;20402;-87
2022/07/19 04:30:28;;;;;;;13.65;10.07;;;;;;;;;;5054013;28;20056;-87
2022/07/19 04:32:54;;;;;;;17.10;9.98;;;;;;;;;;5054650;28;20041;-87
2022/07/19 04:35:20;;;;;;;13.20;9.70;;;;;;;;;;5055722;28;20048;-87
2022/07/19 04:37:46;;;;;;;14.88;9.10;;;;;;;;;;5055078;28;20128;-86
2022/07/19 04:40:12;;;;;;;20.40;9.75;;;;;;;;;;5055364;28;20075;-86
2022/07/19 04:42:38;;;;;;;18.05;9.75;;;;;;;;;;5055561;28;20045;-86
2022/07/19 04:45:04;;;;;;;13.25;8.65;;;;;;;;;;5019383;28;20049;-87
2022/07/19 04:47:30;;;;;;;15.73;9.68;;;;;;;;;;5055834;28;20061;-87
2022/07/19 04:49:56;;;;;;;12.32;8.90;;;;;;;;;;5055178;28;20128;-87
2022/07/19 04:52:23;;;;;;;14.65;9.23;;;;;;;;;;5054927;28;20550;-87
2022/07/19 04:54:49;;;;;;;12.00;8.48;;;;;;;;;;5037055;28;20116;-87
2022/07/19 04:57:15;;;;;;;14.48;8.88;;;;;;;;;;5055236;28;20060;-87
2022/07/19 04:59:41;;;;;;;12.75;8.23;;;;;;;;;;5053237;28;20049;-87
2022/07/19 05:02:07;;;;;;;12.63;8.98;;;;;;;;;;5055322;28;20044;-87
2022/07/19 05:04:33;;;;;;;14.27;8.77;;;;;;;;;;5055436;28;20045;-87
2022/07/19 05:06:59;;;;;;;15.25;9.40;;;;;;;;;;5036259;28;20052;-87
2022/07/19 05:09:26;;;;;;;12.45;9.05;;;;;;;;;;5056027;28;20045;-86
2022/07/19 05:11:52;;;;;;;12.80;8.18;;;;;;;;;;5056388;28;20147;-86
2022/07/19 05:14:19;;;;;;;15.07;9.02;;;;;;;;;;5052592;28;20071;-86
2022/07/19 05:16:45;;;;;;;13.25;9.07;;;;;;;;;;5039258;28;20045;-86
2022/07/19 05:19:11;;;;;;;14.20;8.85;;;;;;;;;;5064993;28;20079;-85
2022/07/19 05:21:37;;;;;;;14.38;9.63;;;;;;;;;;5046096;28;20068;-86
2022/07/19 05:24:03;;;;;;;17.13;8.65;;;;;;;;;;5058340;28;20040;-86
2022/07/19 05:26:30;;;;;;;13.30;8.65;;;;;;;;;;5056215;28;20103;-86
2022/07/19 05:28:56;;;;;;;14.65;9.35;;;;;;;;;;5038269;28;20139;-86
2022/07/19 05:31:22;;;;;;;12.63;8.85;;;;;;;;;;5037257;28;20375;-87
2022/07/19 05:33:48;;;;;;;12.90;8.85;;;;;;;;;;5055014;28;20091;-86
2022/07/19 05:36:14;;;;;;;14.43;8.63;;;;;;;;;;5035398;28;20437;-86
2022/07/19 05:38:40;;;;;;;15.35;8.90;;;;;;;;;;5037134;28;20052;-86
2022/07/19 05:41:07;;;;;;;15.43;8.75;;;;;;;;;;5053687;28;20100;-86
2022/07/19 05:43:35;;;;;;;12.35;8.85;;;;;;;;;;5054491;28;20051;-87
2022/07/19 05:46:01;;;;;;;13.85;9.00;;;;;;;;;;5019874;28;20114;-87
2022/07/19 05:48:27;;;;;;;11.95;8.77;;;;;;;;;;5055212;28;20045;-87
2022/07/19 05:50:53;;;;;;;14.48;8.57;;;;;;;;;;5054918;28;20127;-87
2022/07/19 05:53:19;;;;;;;11.77;7.93;;;;;;;;;;5055245;28;20128;-87
2022/07/19 05:55:45;;;;;;;17.40;8.77;;;;;;;;;;5054780;28;20127;-85
2022/07/19 05:58:11;;;;;;;16.08;8.63;;;;;;;;;;5036630;28;20065;-86
2022/07/19 06:00:37;;;;;;;14.68;7.85;;;;;;;;;;5052990;28;20037;-85
2022/07/19 06:03:03;;;;;;;12.63;8.55;;;;;;;;;;5053608;28;20041;-85
2022/07/19 06:05:29;;;;;;;15.13;8.75;;;;;;;;;;5030821;28;20124;-86
2022/07/19 06:07:55;;;;;;;12.57;8.35;;;;;;;;;;5052909;28;20397;-86
2022/07/19 06:10:21;;;;;;;11.20;8.30;;;;;;;;;;5054087;28;20123;-86
2022/07/19 06:12:47;;;;;;;17.48;8.25;;;;;;;;;;5054015;28;20077;-86
2022/07/19 06:15:13;;;;;;;12.85;8.85;;;;;;;;;;5006357;28;20068;-86
2022/07/19 06:17:39;;;;;;;13.93;8.57;;;;;;;;;;5033646;28;20041;-86
2022/07/19 06:20:05;;;;;;;13.13;8.55;;;;;;;;;;5047733;28;20098;-86
2022/07/19 06:22:32;;;;;;;10.73;8.63;;;;;;;;;;5053366;28;20073;-86
2022/07/19 06:24:58;;;;;;;11.10;8.35;;;;;;;;;;5053070;28;20055;-87
2022/07/19 06:27:24;;;;;;;15.85;8.95;;;;;;;;;;5036152;28;20375;-87
2022/07/19 06:29:50;;;;;;;12.50;7.95;;;;;;;;;;5054719;28;20056;-88
2022/07/19 06:32:19;;;;;;;13.88;7.93;;;;;;;;;;5038390;28;20049;-87
2022/07/19 06:34:45;;;;;;;11.70;7.68;;;;;;;;;;5016913;28;20051;-87
2022/07/19 06:37:11;;;;;;;12.32;7.78;;;;;;;;;;5052378;28;20041;-85
2022/07/19 06:39:37;;;;;;;10.85;7.28;;;;;;;;;;5053377;28;20041;-86
2022/07/19 06:42:03;;;;;;;13.07;7.93;;;;;;;;;;5053171;28;20048;-85
2022/07/19 06:44:29;;;;;;;11.32;8.02;;;;;;;;;;5052546;28;20045;-86
2022/07/19 06:46:55;;;;;;;12.35;7.80;;;;;;;;;;5035372;28;20055;-85
2022/07/19 06:49:22;;;;;;;13.05;8.40;;;;;;;;;;5053325;28;20055;-87
2022/07/19 06:51:48;;;;;;;10.30;8.27;;;;;;;;;;5053231;28;20044;-87
2022/07/19 06:54:14;;;;;;;15.27;7.88;;;;;;;;;;5034183;28;20044;-86
2022/07/19 06:56:40;;;;;;;13.30;7.88;;;;;;;;;;5050043;28;20398;-86
2022/07/19 06:59:06;;;;;;;10.90;7.38;;;;;;;;;;5050835;28;20040;-86
2022/07/19 07:01:32;;;;;;;11.52;7.65;;;;;;;;;;5035885;28;20045;-86
2022/07/19 07:03:58;;;;;;;10.25;7.28;;;;;;;;;;5023069;28;20056;-88
2022/07/19 07:06:24;;;;;;;11.13;7.15;;;;;;;;;;5058542;28;20514;-87
2022/07/19 07:08:50;;;;;;;12.10;7.50;;;;;;;;;;5039498;28;20399;-86
2022/07/19 07:11:16;;;;;;;12.18;7.05;;;;;;;;;;5056832;28;20110;-86
2022/07/19 07:13:42;;;;;;;10.05;6.85;;;;;;;;;;5054956;28;20120;-86
2022/07/19 07:16:08;;;;;;;11.80;6.55;;;;;;;;;;5054957;28;20076;-86
2022/07/19 07:18:34;;;;;;;15.30;6.60;;;;;;;;;;5040488;28;20048;-86
2022/07/19 07:21:00;;;;;;;10.75;7.05;;;;;;;;;;5043024;28;20044;-86
2022/07/19 07:23:26;;;;;;;15.35;6.65;;;;;;;;;;5035655;28;20051;-86
2022/07/19 07:25:53;;;;;;;12.57;6.45;;;;;;;;;;5054988;28;20041;-86
2022/07/19 07:28:20;;;;;;;9.23;6.47;;;;;;;;;;5018661;28;20049;-87
2022/07/19 07:30:46;;;;;;;10.38;6.30;;;;;;;;;;5036081;28;20131;-86
2022/07/19 07:33:12;;;;;;;9.68;6.03;;;;;;;;;;5055271;28;20100;-86
2022/07/19 07:35:38;;;;;;;10.18;5.93;;;;;;;;;;5056286;28;20041;-87
2022/07/19 07:38:04;;;;;;;9.30;5.45;;;;;;;;;;5055664;28;20506;-83
2022/07/19 07:40:30;;;;;;;11.13;5.25;;;;;;;;;;5036183;28;20048;-85
2022/07/19 07:42:56;;;;;;;15.48;5.97;;;;;;;;;;5054072;28;20049;-86
2022/07/19 07:45:22;;;;;;;11.15;5.22;;;;;;;;;;5037836;28;20402;-86
2022/07/19 07:47:48;;;;;;;9.75;5.30;;;;;;;;;;5073309;28;20049;-85
2022/07/19 07:50:14;;;;;;;12.55;5.18;;;;;;;;;;5061982;28;20112;-84
2022/07/19 07:52:40;;;;;;;10.35;5.40;;;;;;;;;;5020522;28;20158;-84
2022/07/19 07:55:06;;;;;;;10.18;5.20;;;;;;;;;;5051265;28;20052;-84
2022/07/19 07:57:32;;;;;;;10.32;5.47;;;;;;;;;;5036372;28;20108;-83
2022/07/19 07:59:58;;;;;;;11.20;5.30;;;;;;;;;;5037849;28;20509;-82
2022/07/19 08:02:24;;;;;;;10.63;5.45;;;;;;;;;;5055766;28;20048;-82
2022/07/19 08:04:50;;;;;;;10.50;5.22;;;;;;;;;;5051093;28;20045;-82
2022/07/19 08:07:16;;;;;;;9.32;5.28;;;;;;;;;;5036555;28;20053;-83
2022/07/19 08:09:42;;;;;;;8.13;5.07;;;;;;;;;;5054129;28;20507;-84
2022/07/19 08:12:08;;;;;;;11.30;4.85;;;;;;;;;;5054446;28;20036;-84
2022/07/19 08:14:34;;;;;;;9.25;4.35;;;;;;;;;;5052358;28;20048;-81
2022/07/19 08:17:00;;;;;;;10.25;4.43;;;;;;;;;;5055515;28;20448;-82
2022/07/19 08:19:26;;;;;;;11.35;5.00;;;;;;;;;;5054652;28;20043;-83
2022/07/19 08:21:52;;;;;;;7.45;4.32;;;;;;;;;;5048598;28;20037;-84
2022/07/19 08:24:19;;;;;;;10.50;4.47;;;;;;;;;;5036378;28;20490;-84
2022/07/19 08:26:45;;;;;;;7.63;3.55;;;;;;;;;;5053066;28;20040;-84
2022/07/19 08:29:11;;;;;;;8.23;4.38;;;;;;;;;;5037615;28;20059;-84
2022/07/19 08:31:37;;;;;;;7.90;4.15;;;;;;;;;;5054768;28;20490;-85
2022/07/19 08:34:03;;;;;;;7.55;4.03;;;;;;;;;;5051264;28;20049;-85
2022/07/19 08:36:29;;;;;;;12.48;4.07;;;;;;;;;;5053153;28;20117;-84
2022/07/19 08:38:55;;;;;;;10.90;3.80;;;;;;;;;;5054017;28;20084;-84
2022/07/19 08:41:21;;;;;;;9.60;4.30;;;;;;;;;;5053834;28;20045;-84
2022/07/19 08:43:48;;;;;;;9.55;4.00;;;;;;;;;;5037707;28;20063;-85
2022/07/19 08:46:14;;;;;;;8.52;3.78;;;;;;;;;;5049322;28;20103;-84
2022/07/19 08:48:40;;;;;;;6.68;3.80;;;;;;;;;;5051776;28;20506;-84
2022/07/19 08:51:07;;;;;;;7.78;4.03;;;;;;;;;;5054945;28;20389;-84
2022/07/19 08:53:37;;;;;;;6.78;4.00;;;;;;;;;;5054517;28;20044;-83
2022/07/19 08:57:56;;;;;;;7.30;3.80;;;;;;;;;;5052287;28;20049;-85
2022/07/19 08:58:49;;;;;;;6.85;3.50;;;;;;;;;;5050879;28;20124;-84
2022/07/19 09:01:15;;;;;;;10.93;4.13;;;;;;;;;;5040702;28;20047;-83
2022/07/19 09:04:00;;;;;;;8.38;3.53;;;;;;;;;;5040309;28;20140;-85
2022/07/19 09:06:37;;;;;;;6.60;3.90;;;;;;;;;;5034609;28;20049;-85
2022/07/19 09:09:04;;;;;;;6.70;3.63;;;;;;;;;;5034499;28;20051;-84
2022/07/19 09:11:38;;;;;;;7.35;3.20;;;;;;;;;;5038552;28;20052;-86
2022/07/19 09:14:10;;;;;;;8.45;3.53;;;;;;;;;;5052264;28;20567;-85
2022/07/19 09:16:52;;;;;;;8.90;3.40;;;;;;;;;;5048473;28;20037;-86
2022/07/19 09:19:19;;;;;;;8.15;3.33;;;;;;;;;;5051302;28;20040;-85
2022/07/19 09:21:59;;;;;;;7.70;3.10;;;;;;;;;;5042300;28;20052;-85
2022/07/19 09:24:26;;;;;;;9.25;3.05;;;;;;;;;;5066872;28;20049;-87
2022/07/19 09:26:55;;;;;;;7.03;3.00;;;;;;;;;;5056010;28;20449;-86
2022/07/19 09:29:21;;;;;;;7.40;2.83;;;;;;;;;;5059068;28;20048;-85
2022/07/19 09:32:05;;;;;;;7.55;3.10;;;;;;;;;;5057213;28;20037;-84
2022/07/19 09:34:33;;;;;;;11.27;2.65;;;;;;;;;;5052164;28;20453;-84
2022/07/19 09:37:08;;;;;;;17.52;2.90;;;;;;;;;;5034619;28;20089;-85
2022/07/19 09:39:34;;;;;;;10.73;2.80;;;;;;;;;;5050618;28;20037;-84
2022/07/19 09:42:02;;;;;;;11.10;2.60;;;;;;;;;;5051611;28;20048;-84
2022/07/19 09:44:29;;;;;;;9.05;2.40;;;;;;;;;;5052534;28;20049;-85
2022/07/19 09:46:55;;;;;;;6.95;2.55;;;;;;;;;;5052265;28;20048;-84
2022/07/19 09:49:21;;;;;;;7.57;2.42;;;;;;;;;;5053047;28;20045;-84
2022/07/19 09:51:49;;;;;;;8.18;2.63;;;;;;;;;;5036504;28;20098;-84
2022/07/19 09:54:16;;;;;;;6.13;2.22;;;;;;;;;;5052456;28;20056;-84
2022/07/19 09:56:44;;;;;;;9.02;2.40;;;;;;;;;;5050589;28;20043;-86
2022/07/19 09:59:10;;;;;;;7.25;2.10;;;;;;;;;;5050985;28;20073;-84
2022/07/19 10:01:36;;;;;;;7.70;2.20;;;;;;;;;;5032288;28;20041;-84
2022/07/19 10:04:05;;;;;;;8.10;2.40;;;;;;;;;;5053188;28;20052;-84
2022/07/19 10:06:32;;;;;;;6.28;2.42;;;;;;;;;;5050355;28;20037;-83
2022/07/19 10:08:59;;;;;;;11.57;2.28;;;;;;;;;;5051488;28;20068;-84
2022/07/19 10:11:25;;;;;;;5.22;2.05;;;;;;;;;;5034100;28;20037;-85
2022/07/19 10:13:53;;;;;;;8.15;2.10;;;;;;;;;;5052586;28;20114;-83
2022/07/19 10:16:25;;;;;;;8.05;2.30;;;;;;;;;;5016625;28;20490;-84
2022/07/19 10:18:57;;;;;;;5.88;2.30;;;;;;;;;;5030822;28;20049;-84
2022/07/19 10:21:24;;;;;;;7.90;2.50;;;;;;;;;;5052634;28;20045;-84
2022/07/19 10:23:53;;;;;;;6.47;2.47;;;;;;;;;;5050652;28;20041;-84
2022/07/19 10:26:51;;;;;;;6.68;2.35;;;;;;;;;;5053361;28;20086;-85
2022/07/19 10:29:18;;;;;;;8.82;2.35;;;;;;;;;;4985843;28;20053;-84
2022/07/19 10:32:00;;;;;;;6.60;2.53;;;;;;;;;;5048102;28;20117;-83
2022/07/19 10:34:26;;;;;;;9.00;2.60;;;;;;;;;;5051344;28;20052;-83
2022/07/19 10:36:54;;;;;;;7.15;2.88;;;;;;;;;;5031775;28;20041;-85
2022/07/19 10:39:20;;;;;;;5.28;2.55;;;;;;;;;;5056471;28;20057;-84
2022/07/19 10:42:05;;;;;;;7.25;2.53;;;;;;;;;;5055717;28;20136;-84
2022/07/19 10:44:31;;;;;;;6.85;2.30;;;;;;;;;;5056024;28;20098;-85
2022/07/19 10:46:57;;;;;;;6.60;2.28;;;;;;;;;;5057330;28;20045;-86
2022/07/19 10:49:44;;;;;;;8.85;2.33;;;;;;;;;;5054335;28;20093;-86
2022/07/19 10:52:29;;;;;;;5.38;2.45;;;;;;;;;;5048482;28;20073;-86
2022/07/19 10:55:14;;;;;;;8.88;2.60;;;;;;;;;;5055759;28;20428;-84
2022/07/19 10:57:40;;;;;;;6.60;2.38;;;;;;;;;;5058143;28;20447;-85
2022/07/19 11:00:28;;;;;;;7.22;2.10;;;;;;;;;;5038635;28;20083;-86
2022/07/19 11:03:16;;;;;;;7.18;2.13;;;;;;;;;;5054066;28;20128;-85
2022/07/19 11:05:56;;;;;;;8.55;2.30;;;;;;;;;;5038566;28;20053;-87
2022/07/19 11:08:32;;;;;;;6.68;2.08;;;;;;;;;;5059194;28;20393;-88
2022/07/19 11:11:08;;;;;;;8.00;2.15;;;;;;;;;;5043991;28;20391;-86
2022/07/19 11:13:34;;;;;;;4.97;2.05;;;;;;;;;;5056262;28;21630;-85
2022/07/19 11:16:02;;;;;;;5.55;2.10;;;;;;;;;;5057974;28;20053;-84
2022/07/19 11:18:28;;;;;;;7.97;2.30;;;;;;;;;;5041635;28;20045;-85
2022/07/19 11:20:57;;;;;;;6.78;2.15;;;;;;;;;;5044131;28;20041;-84
2022/07/19 11:23:23;;;;;;;8.75;2.30;;;;;;;;;;5057908;28;20453;-86
2022/07/19 11:25:50;;;;;;;6.43;2.40;;;;;;;;;;5046495;28;20048;-84
2022/07/19 11:28:21;;;;;;;7.20;2.30;;;;;;;;;;5059882;28;20049;-86
2022/07/19 11:30:47;;;;;;;7.22;2.40;;;;;;;;;;5040120;28;20059;-85
2022/07/19 11:33:16;;;;;;;8.30;2.20;;;;;;;;;;5057888;28;20048;-85
2022/07/19 11:35:52;;;;;;;6.35;2.00;;;;;;;;;;5054840;28;20391;-85
2022/07/19 11:38:18;;;;;;;11.15;2.17;;;;;;;;;;5056506;28;20441;-88
2022/07/19 11:40:44;;;;;;;5.80;2.15;;;;;;;;;;5047470;28;20375;-84
2022/07/19 11:43:11;;;;;;;10.48;2.42;;;;;;;;;;5052109;28;20406;-85
2022/07/19 11:45:44;;;;;;;7.55;2.40;;;;;;;;;;5054009;28;20060;-86
2022/07/19 11:48:10;;;;;;;7.68;2.20;;;;;;;;;;5030380;28;20049;-85
2022/07/19 11:50:36;;;;;;;9.52;2.13;;;;;;;;;;5046478;28;20045;-86
2022/07/19 11:53:02;;;;;;;6.97;2.50;;;;;;;;;;5031087;28;20052;-86
2022/07/19 11:55:35;;;;;;;8.57;2.30;;;;;;;;;;5049328;28;20065;-86
2022/07/19 11:58:06;;;;;;;6.20;2.22;;;;;;;;;;5048170;28;20076;-86
2022/07/19 12:00:32;;;;;;;;;;;;;;;;;;5046197;28;20051;-86
2022/07/19 12:03:03;;;;;;;6.80;2.10;;;;;;;;;;5048244;28;19921;-87
2022/07/19 12:05:30;;;;;;;6.78;2.10;;;;;;;;;;5047027;28;20041;-87
2022/07/19 12:07:58;;;;;;;7.03;2.10;;;;;;;;;;5029003;28;20055;-87
2022/07/19 12:10:33;;;;;;;8.80;2.30;;;;;;;;;;5053656;28;20099;-86
2022/07/19 12:13:00;;;;;;;8.45;2.10;;;;;;;;;;5051943;28;20041;-86
2022/07/19 12:15:26;;;;;;;4.80;1.85;;;;;;;;;;5050216;28;20068;-85
2022/07/19 12:17:56;;;;;;;7.70;2.30;;;;;;;;;;5047837;28;20037;-85
2022/07/19 12:20:22;;;;;;;8.25;1.80;;;;;;;;;;5036341;28;20053;-86
2022/07/19 12:22:48;;;;;;;5.80;1.80;;;;;;;;;;5034139;28;20068;-85
2022/07/19 12:25:15;;;;;;;9.75;1.92;;;;;;;;;;5048012;28;20072;-86
2022/07/19 12:27:41;;;;;;;6.60;1.77;;;;;;;;;;5046639;28;20041;-85
2022/07/19 12:30:17;;;;;;;6.07;2.08;;;;;;;;;;5035269;28;20049;-86
2022/07/19 12:32:47;;;;;;;7.80;2.20;;;;;;;;;;5029134;28;20041;-85
2022/07/19 12:35:14;;;;;;;7.20;1.90;;;;;;;;;;5048587;28;20041;-85
2022/07/19 12:37:41;;;;;;;5.60;2.05;;;;;;;;;;5051161;28;20049;-85
2022/07/19 12:40:09;;;;;;;5.28;1.63;;;;;;;;;;5045801;28;20495;-87
2022/07/19 12:42:59;;;;;;;8.00;1.90;;;;;;;;;;5029510;28;20072;-86
2022/07/19 12:45:27;;;;;;;7.90;2.17;;;;;;;;;;5047959;28;20562;-86
2022/07/19 12:47:53;;;;;;;6.88;2.17;;;;;;;;;;5032183;28;20453;-87
2022/07/19 12:50:29;;;;;;;10.15;1.92;;;;;;;;;;5016505;28;20041;-85
2022/07/19 12:52:56;;;;;;;5.88;2.17;;;;;;;;;;5045118;28;20483;-85
2022/07/19 12:55:23;;;;;;;7.32;1.73;;;;;;;;;;5043584;28;20384;-85
2022/07/19 12:57:50;;;;;;;7.38;1.60;;;;;;;;;;5050744;28;20505;-87
2022/07/19 13:00:17;;;;;;;5.10;1.83;;;;;;;;;;5046543;28;20037;-86
2022/07/19 13:02:44;;;;;;;7.35;1.65;;;;;;;;;;5051464;28;20119;-85
2022/07/19 13:05:10;;;;;;;6.07;1.98;;;;;;;;;;5047275;28;20045;-85
2022/07/19 13:07:36;;;;;;;6.03;1.60;;;;;;;;;;5045077;28;20069;-86
2022/07/19 13:10:03;;;;;;;7.80;1.88;;;;;;;;;;5029711;28;20052;-86
2022/07/19 13:12:29;;;;;;;7.38;2.00;;;;;;;;;;5046009;28;20048;-86
2022/07/19 13:14:55;;;;;;;4.32;1.58;;;;;;;;;;5029157;28;20045;-86
2022/07/19 13:17:21;;;;;;;9.25;1.67;;;;;;;;;;5046981;28;20033;-86
2022/07/19 13:19:47;;;;;;;5.70;1.63;;;;;;;;;;5045192;28;20399;-85
2022/07/19 13:22:13;;;;;;;6.43;1.70;;;;;;;;;;5043123;28;20045;-86
2022/07/19 13:24:39;;;;;;;9.93;2.03;;;;;;;;;;5043558;28;20045;-87
2022/07/19 13:27:05;;;;;;;10.40;1.52;;;;;;;;;;5047769;28;20037;-86
2022/07/19 13:29:31;;;;;;;6.10;1.73;;;;;;;;;;5047685;28;20093;-86
2022/07/19 13:32:01;;;;;;;4.20;1.70;;;;;;;;;;5048176;28;20037;-86
2022/07/19 13:34:27;;;;;;;5.37;1.73;;;;;;;;;;5048177;28;20041;-86
2022/07/19 13:36:53;;;;;;;7.43;1.60;;;;;;;;;;5046255;28;20482;-86
2022/07/19 13:39:19;;;;;;;5.55;1.70;;;;;;;;;;5025478;28;20125;-86
2022/07/19 13:41:45;;;;;;;6.28;1.70;;;;;;;;;;5045269;28;20037;-87
2022/07/19 13:44:11;;;;;;;5.75;1.50;;;;;;;;;;5049319;28;20083;-85
2022/07/19 13:46:37;;;;;;;6.88;1.70;;;;;;;;;;5045756;28;20084;-87
2022/07/19 13:49:03;;;;;;;6.07;1.67;;;;;;;;;;5044499;28;20116;-86
2022/07/19 13:51:29;;;;;;;8.18;1.70;;;;;;;;;;5011179;28;20045;-87
2022/07/19 13:53:55;;;;;;;5.30;1.63;;;;;;;;;;5047307;28;20033;-87
2022/07/19 13:56:22;;;;;;;7.25;1.63;;;;;;;;;;5046702;28;20116;-86
2022/07/19 13:58:48;;;;;;;7.10;1.52;;;;;;;;;;5047385;28;20045;-86
2022/07/19 14:01:15;;;;;;;6.55;1.55;;;;;;;;;;5029058;28;20522;-85
2022/07/19 14:03:41;;;;;;;5.03;1.77;;;;;;;;;;5048015;28;20490;-86
2022/07/19 14:06:07;;;;;;;8.52;1.60;;;;;;;;;;5042835;28;20418;-87
2022/07/19 14:08:33;;;;;;;6.75;1.88;;;;;;;;;;5035460;28;20045;-87
2022/07/19 14:11:00;;;;;;;6.82;1.85;;;;;;;;;;5030260;28;20041;-86
2022/07/19 14:13:27;;;;;;;6.45;1.77;;;;;;;;;;5051447;28;20033;-87
2022/07/19 14:15:53;;;;;;;8.52;1.80;;;;;;;;;;5053249;28;20486;-87
2022/07/19 14:18:19;;;;;;;5.93;1.55;;;;;;;;;;5045501;28;20486;-86
2022/07/19 14:20:45;;;;;;;8.38;2.13;;;;;;;;;;5051559;28;20098;-86
2022/07/19 14:23:11;;;;;;;5.68;1.60;;;;;;;;;;5051501;28;20043;-86
2022/07/19 14:25:38;;;;;;;6.03;1.90;;;;;;;;;;5056334;28;20040;-86
2022/07/19 14:28:04;;;;;;;7.32;2.00;;;;;;;;;;5052912;28;20067;-86
2022/07/19 14:30:31;;;;;;;5.72;1.60;;;;;;;;;;5057750;28;20041;-86
2022/07/19 14:32:57;;;;;;;6.25;1.80;;;;;;;;;;5054188;28;20124;-86
2022/07/19 14:35:23;;;;;;;6.20;1.75;;;;;;;;;;5052709;28;20045;-86
2022/07/19 14:37:49;;;;;;;9.43;6.88;;;;;;;;;;5043589;28;20116;-86
2022/07/19 14:40:15;;;;;;;7.43;2.38;;;;;;;;;;5045425;28;20037;-87
2022/07/19 14:42:41;;;;;;;5.78;1.65;;;;;;;;;;5046128;28;20072;-87
2022/07/19 14:45:08;;;;;;;6.20;1.73;;;;;;;;;;5048395;28;20052;-87